Roy, Utah
Current Conditions -  °F | °C
As of 1:53 AM on Saturday 29 Nov 2014 (Local Time) from KOGD Reporting Station
Clear Clear  
Wind Chill: 45°   Ceiling: Unl
Heat Index: 49°   Visibility: 10mi
Dew Point: 20°   Wind: 9mph
Humidity: 32%   Direction: 190°S
Pressure: 29.73"   Gusts: NA
Location:  41.17°N, 112.02°W
Report Text: KOGD 290853Z AUTO 19008KT 10SM CLR 09/M07 A2973 RMK AO2 SLP034 T00941067 58005 TSNO
Loading
Personal Weather Stations






























Interactive Weather Map New forecast layout! Learn more

10-Day Weather Forecast

Advertisements
Track Severe Weather on mobile